Time;durP1;ratioP1;P1;durP2;ratioP2;P2;SDS_P1;SDS_P2;PMS_P1;PMS_P2;Temp;Humidity;BMP_temperature;BMP_pressure;BME280_temperature;BME280_humidity;BME280_pressure;Samples;Min_cycle;Max_cycle;Signal;HPM_P1;HPM_P2
2023/01/01 00:01:08;;;;;;;23.58;9.98;;;;;;;;;;5028866;28;20041;-79
2023/01/01 00:03:34;;;;;;;26.85;16.83;;;;;;;;;;5028033;28;20052;-80
2023/01/01 00:06:05;;;;;;;20.40;12.13;;;;;;;;;;5028536;28;20385;-80
2023/01/01 00:08:31;;;;;;;27.55;12.10;;;;;;;;;;5030188;28;20373;-79
2023/01/01 00:11:00;;;;;;;19.55;9.68;;;;;;;;;;5028718;28;20123;-79
2023/01/01 00:13:29;;;;;;;20.75;10.45;;;;;;;;;;5012358;28;20038;-81
2023/01/01 00:15:55;;;;;;;26.60;16.05;;;;;;;;;;5029344;28;20031;-80
2023/01/01 00:18:20;;;;;;;18.23;9.90;;;;;;;;;;5028590;28;20025;-80
2023/01/01 00:20:46;;;;;;;19.60;9.73;;;;;;;;;;5028388;28;20029;-80
2023/01/01 00:23:11;;;;;;;19.95;9.27;;;;;;;;;;5028571;28;20418;-80
2023/01/01 00:25:40;;;;;;;12.93;8.13;;;;;;;;;;5029891;28;20101;-80
2023/01/01 00:28:08;;;;;;;19.65;8.60;;;;;;;;;;5028763;28;20127;-79
2023/01/01 00:30:34;;;;;;;12.10;7.22;;;;;;;;;;5027674;28;20388;-79
2023/01/01 00:33:00;;;;;;;11.50;7.20;;;;;;;;;;5028004;28;20022;-79
2023/01/01 00:35:26;;;;;;;16.50;8.15;;;;;;;;;;5028114;28;20098;-79
2023/01/01 00:37:53;;;;;;;15.10;8.07;;;;;;;;;;5029763;28;20082;-79
2023/01/01 00:40:18;;;;;;;14.68;8.30;;;;;;;;;;5029404;28;20083;-81
2023/01/01 00:42:45;;;;;;;19.60;8.88;;;;;;;;;;5028023;28;20053;-79
2023/01/01 00:45:10;;;;;;;13.82;7.78;;;;;;;;;;5029127;28;20080;-80
2023/01/01 00:47:36;;;;;;;15.48;8.70;;;;;;;;;;5029652;28;20030;-80
2023/01/01 00:50:02;;;;;;;13.57;7.88;;;;;;;;;;5028967;28;20177;-79
2023/01/01 00:52:28;;;;;;;20.30;8.35;;;;;;;;;;5028192;28;20017;-80
2023/01/01 00:54:54;;;;;;;12.63;7.70;;;;;;;;;;5027837;28;20699;-80
2023/01/01 00:57:20;;;;;;;13.30;7.50;;;;;;;;;;5027947;28;20029;-80
2023/01/01 00:59:45;;;;;;;14.27;7.40;;;;;;;;;;5028292;28;20136;-78
2023/01/01 01:02:11;;;;;;;12.13;6.25;;;;;;;;;;5028231;28;20025;-80
2023/01/01 01:04:36;;;;;;;9.70;6.05;;;;;;;;;;5029438;28;20091;-80
2023/01/01 01:07:02;;;;;;;12.38;7.47;;;;;;;;;;5029557;28;20025;-80
2023/01/01 01:09:28;;;;;;;12.75;6.85;;;;;;;;;;5027406;28;20021;-79
2023/01/01 01:11:54;;;;;;;13.30;7.05;;;;;;;;;;5027898;28;20030;-80
2023/01/01 01:14:19;;;;;;;13.88;7.28;;;;;;;;;;5029531;28;20025;-80
2023/01/01 01:16:45;;;;;;;13.98;7.28;;;;;;;;;;5029173;28;20485;-80
2023/01/01 01:19:14;;;;;;;13.18;6.57;;;;;;;;;;5027703;28;20166;-80
2023/01/01 01:21:40;;;;;;;12.48;7.40;;;;;;;;;;5027772;28;20473;-79
2023/01/01 01:24:05;;;;;;;12.07;6.30;;;;;;;;;;5027281;28;20124;-80
2023/01/01 01:26:32;;;;;;;14.40;7.00;;;;;;;;;;5030475;28;20025;-81
2023/01/01 01:28:58;;;;;;;15.80;6.90;;;;;;;;;;5032674;28;20064;-81
2023/01/01 01:31:27;;;;;;;13.02;6.97;;;;;;;;;;5031452;28;20037;-80
2023/01/01 01:33:53;;;;;;;13.10;6.18;;;;;;;;;;5031271;28;20028;-80
2023/01/01 01:36:19;;;;;;;12.02;6.72;;;;;;;;;;5032642;28;20017;-80
2023/01/01 01:38:44;;;;;;;11.93;7.03;;;;;;;;;;5050124;28;20090;-80
2023/01/01 01:41:13;;;;;;;11.48;5.30;;;;;;;;;;5050940;28;20499;-80
2023/01/01 01:43:38;;;;;;;11.30;5.97;;;;;;;;;;5051164;28;20020;-80
2023/01/01 01:46:09;;;;;;;9.98;5.47;;;;;;;;;;5051095;28;20504;-79
2023/01/01 01:48:50;;;;;;;9.18;5.25;;;;;;;;;;5051626;28;20089;-80
2023/01/01 01:51:25;;;;;;;9.27;5.23;;;;;;;;;;5052092;28;20037;-81
2023/01/01 01:53:54;;;;;;;12.80;5.35;;;;;;;;;;5051200;28;20033;-81
2023/01/01 01:56:28;;;;;;;9.65;5.63;;;;;;;;;;5050968;28;20028;-80
2023/01/01 01:58:54;;;;;;;7.25;4.63;;;;;;;;;;5050883;28;20039;-80
2023/01/01 02:01:19;;;;;;;15.10;5.28;;;;;;;;;;5050645;28;20024;-79
2023/01/01 02:03:52;;;;;;;11.35;5.30;;;;;;;;;;5050852;28;20054;-78
2023/01/01 02:06:19;;;;;;;9.55;4.57;;;;;;;;;;5050466;28;20057;-80
2023/01/01 02:08:45;;;;;;;10.57;5.03;;;;;;;;;;5034036;28;20036;-80
2023/01/01 02:11:10;;;;;;;13.52;6.55;;;;;;;;;;5049928;28;20028;-79
2023/01/01 02:13:36;;;;;;;11.45;6.32;;;;;;;;;;5051880;28;20057;-79
2023/01/01 02:16:26;;;;;;;9.90;5.85;;;;;;;;;;5051552;28;20017;-78
2023/01/01 02:19:07;;;;;;;10.63;5.15;;;;;;;;;;5051520;28;20048;-81
2023/01/01 02:21:41;;;;;;;8.98;4.95;;;;;;;;;;5050365;28;20048;-80
2023/01/01 02:24:13;;;;;;;11.90;5.15;;;;;;;;;;5050265;28;20025;-79
2023/01/01 02:26:52;;;;;;;7.72;4.63;;;;;;;;;;5051663;28;20029;-79
2023/01/01 02:29:24;;;;;;;9.35;4.95;;;;;;;;;;5051722;28;20113;-79
2023/01/01 02:32:02;;;;;;;;;;;;;;;;;;5052180;28;20037;-80
2023/01/01 02:34:34;;;;;;;10.02;4.75;;;;;;;;;;5051702;28;19908;-79
2023/01/01 02:37:03;;;;;;;14.07;6.55;;;;;;;;;;5049857;28;20033;-80
2023/01/01 02:39:33;;;;;;;8.45;6.20;;;;;;;;;;5050751;28;20096;-78
2023/01/01 02:42:02;;;;;;;8.98;4.97;;;;;;;;;;5049744;28;20514;-78
2023/01/01 02:44:31;;;;;;;12.63;5.65;;;;;;;;;;5033233;28;20044;-76
2023/01/01 02:47:04;;;;;;;9.45;5.65;;;;;;;;;;5049705;28;20041;-79
2023/01/01 02:49:30;;;;;;;9.60;5.07;;;;;;;;;;5050136;28;20452;-79
2023/01/01 02:52:31;;;;;;;11.45;5.10;;;;;;;;;;5049738;28;20040;-80
2023/01/01 02:55:06;;;;;;;8.50;4.82;;;;;;;;;;5051743;28;20017;-80
2023/01/01 03:00:17;;;;;;;10.45;5.38;;;;;;;;;;5051919;28;20028;-80
2023/01/01 03:00:46;;;;;;;10.35;5.28;;;;;;;;;;5050851;28;20432;-80
2023/01/01 03:03:26;;;;;;;7.18;4.68;;;;;;;;;;5049842;28;20025;-80
2023/01/01 03:09:06;;;;;;;11.98;6.50;;;;;;;;;;5051826;28;20067;-79
2023/01/01 03:11:43;;;;;;;8.05;5.18;;;;;;;;;;5039084;28;20262;-79
2023/01/01 03:14:24;;;;;;;9.88;5.45;;;;;;;;;;5049841;28;20411;-79
2023/01/01 03:16:58;;;;;;;13.25;6.45;;;;;;;;;;5049359;28;20037;-79
2023/01/01 03:19:27;;;;;;;12.00;5.80;;;;;;;;;;5049708;28;20025;-80
2023/01/01 03:22:06;;;;;;;13.38;5.47;;;;;;;;;;5050966;28;20078;-80
2023/01/01 03:24:39;;;;;;;11.43;6.30;;;;;;;;;;5049909;28;20591;-80
2023/01/01 03:27:19;;;;;;;9.65;6.07;;;;;;;;;;5049412;28;20025;-79
2023/01/01 03:29:46;;;;;;;14.82;6.07;;;;;;;;;;5050390;28;20485;-80
2023/01/01 03:32:20;;;;;;;12.45;5.43;;;;;;;;;;5048728;28;20094;-80
2023/01/01 03:34:53;;;;;;;11.50;5.20;;;;;;;;;;5050615;28;20021;-80
2023/01/01 03:37:25;;;;;;;16.73;6.15;;;;;;;;;;5045179;28;20481;-79
2023/01/01 03:39:53;;;;;;;12.93;6.10;;;;;;;;;;5030688;28;20095;-80
2023/01/01 03:42:33;;;;;;;14.18;6.18;;;;;;;;;;5028884;28;20136;-80
2023/01/01 03:45:08;;;;;;;13.85;6.72;;;;;;;;;;5049110;28;20369;-78
2023/01/01 03:47:33;;;;;;;11.90;5.22;;;;;;;;;;5048332;28;20488;-80
2023/01/01 03:50:00;;;;;;;14.07;6.00;;;;;;;;;;5049515;28;20029;-80
2023/01/01 03:52:47;;;;;;;6.28;3.92;;;;;;;;;;5048410;28;20025;-79
2023/01/01 03:55:40;;;;;;;11.15;4.88;;;;;;;;;;5049843;28;20341;-79
2023/01/01 03:58:22;;;;;;;11.05;4.78;;;;;;;;;;5050378;28;20086;-80
2023/01/01 04:01:00;;;;;;;9.98;4.97;;;;;;;;;;5050169;28;20029;-80
2023/01/01 04:03:28;;;;;;;8.70;4.47;;;;;;;;;;5051016;28;20112;-79
2023/01/01 04:05:54;;;;;;;11.55;4.65;;;;;;;;;;5049389;28;20063;-79
2023/01/01 04:08:20;;;;;;;10.27;4.57;;;;;;;;;;5049823;28;20100;-79
2023/01/01 04:10:50;;;;;;;8.27;4.97;;;;;;;;;;5048582;28;20123;-78
2023/01/01 04:13:15;;;;;;;7.63;4.43;;;;;;;;;;5048060;28;20029;-78
2023/01/01 04:15:41;;;;;;;6.90;3.50;;;;;;;;;;5048388;28;20496;-79
2023/01/01 04:18:07;;;;;;;8.55;4.47;;;;;;;;;;5049130;28;20021;-78
2023/01/01 04:20:32;;;;;;;9.15;4.07;;;;;;;;;;5048123;28;20452;-79
2023/01/01 04:22:59;;;;;;;9.48;4.65;;;;;;;;;;5048034;28;20107;-79
2023/01/01 04:25:25;;;;;;;8.65;4.10;;;;;;;;;;5049438;28;20025;-79
2023/01/01 04:27:50;;;;;;;8.18;4.63;;;;;;;;;;5049767;28;20035;-80
2023/01/01 04:30:17;;;;;;;9.05;4.57;;;;;;;;;;5049540;28;20025;-80
2023/01/01 04:32:42;;;;;;;10.60;4.43;;;;;;;;;;5048371;28;20166;-80
2023/01/01 04:35:13;;;;;;;10.55;4.53;;;;;;;;;;5048276;28;20108;-80
2023/01/01 04:37:40;;;;;;;8.75;4.80;;;;;;;;;;5048063;28;20021;-80
2023/01/01 04:40:07;;;;;;;8.48;4.63;;;;;;;;;;5047753;28;20500;-79
2023/01/01 04:42:32;;;;;;;9.02;3.95;;;;;;;;;;5048808;28;20084;-79
2023/01/01 04:44:58;;;;;;;7.22;3.95;;;;;;;;;;5049293;28;20508;-79
2023/01/01 04:47:25;;;;;;;9.13;4.00;;;;;;;;;;5049133;28;20025;-79
2023/01/01 04:49:51;;;;;;;7.88;4.65;;;;;;;;;;5047900;28;20111;-79
2023/01/01 04:52:17;;;;;;;12.15;4.65;;;;;;;;;;5049372;28;20025;-79
2023/01/01 04:54:43;;;;;;;11.40;4.90;;;;;;;;;;5049693;28;20463;-80
2023/01/01 04:57:08;;;;;;;6.90;3.92;;;;;;;;;;5049463;28;20099;-80
2023/01/01 04:59:34;;;;;;;6.45;3.75;;;;;;;;;;5050334;28;20036;-80
2023/01/01 05:01:59;;;;;;;7.88;4.47;;;;;;;;;;5052383;28;20102;-80
2023/01/01 05:04:25;;;;;;;9.30;4.13;;;;;;;;;;5052768;28;20035;-79
2023/01/01 05:06:50;;;;;;;6.25;3.88;;;;;;;;;;5053673;28;20538;-78
2023/01/01 05:09:16;;;;;;;9.27;4.68;;;;;;;;;;5053335;28;20021;-79
2023/01/01 05:11:41;;;;;;;8.02;4.43;;;;;;;;;;5053541;28;20032;-79
2023/01/01 05:14:07;;;;;;;11.32;4.07;;;;;;;;;;5052150;28;20036;-80
2023/01/01 05:16:35;;;;;;;12.95;4.82;;;;;;;;;;5053446;28;20025;-79
2023/01/01 05:19:01;;;;;;;7.22;4.05;;;;;;;;;;5053874;28;20025;-78
2023/01/01 05:21:33;;;;;;;10.68;4.18;;;;;;;;;;5051460;28;20028;-79
2023/01/01 05:24:01;;;;;;;8.95;4.40;;;;;;;;;;5052847;28;20021;-79
2023/01/01 05:26:31;;;;;;;11.32;4.10;;;;;;;;;;5051639;28;20033;-78
2023/01/01 05:28:59;;;;;;;7.85;3.92;;;;;;;;;;5051129;28;20733;-79
2023/01/01 05:31:27;;;;;;;10.00;3.90;;;;;;;;;;5052236;28;20068;-79
2023/01/01 05:33:53;;;;;;;8.02;3.22;;;;;;;;;;5053034;28;20028;-79
2023/01/01 05:36:22;;;;;;;6.90;4.03;;;;;;;;;;5052712;28;20104;-78
2023/01/01 05:38:48;;;;;;;12.48;3.97;;;;;;;;;;5051138;28;20198;-78
2023/01/01 05:41:15;;;;;;;7.40;4.03;;;;;;;;;;5051080;28;20515;-79
2023/01/01 05:43:42;;;;;;;6.40;3.50;;;;;;;;;;5051612;28;20468;-79
2023/01/01 05:46:11;;;;;;;7.50;3.70;;;;;;;;;;5051114;28;20536;-79
2023/01/01 05:48:37;;;;;;;8.93;3.85;;;;;;;;;;5052428;28;20430;-79
2023/01/01 05:51:05;;;;;;;5.55;3.33;;;;;;;;;;5051234;28;20146;-79
2023/01/01 05:53:31;;;;;;;6.65;3.50;;;;;;;;;;5051324;28;20049;-80
2023/01/01 05:55:57;;;;;;;7.30;4.25;;;;;;;;;;5051930;28;20032;-79
2023/01/01 05:58:22;;;;;;;7.63;3.45;;;;;;;;;;5051029;28;20831;-79
2023/01/01 06:00:49;;;;;;;5.88;3.75;;;;;;;;;;5050893;28;20451;-80
2023/01/01 06:03:15;;;;;;;6.53;3.20;;;;;;;;;;5052489;28;20035;-79
2023/01/01 06:05:41;;;;;;;6.20;3.10;;;;;;;;;;5052291;28;20020;-79
2023/01/01 06:08:06;;;;;;;6.88;3.40;;;;;;;;;;5051756;28;20044;-79
2023/01/01 06:10:32;;;;;;;13.93;3.60;;;;;;;;;;5050645;28;20048;-79
2023/01/01 06:12:58;;;;;;;8.55;3.50;;;;;;;;;;5050335;28;20028;-79
2023/01/01 06:15:27;;;;;;;8.80;3.78;;;;;;;;;;5053339;28;20431;-79
2023/01/01 06:17:53;;;;;;;10.07;3.95;;;;;;;;;;5052260;28;20028;-80
2023/01/01 06:20:18;;;;;;;7.60;3.60;;;;;;;;;;5050253;28;20476;-80
2023/01/01 06:22:44;;;;;;;7.63;4.10;;;;;;;;;;5052092;28;20036;-79
2023/01/01 06:25:10;;;;;;;7.53;3.15;;;;;;;;;;5050358;28;20075;-80
2023/01/01 06:27:36;;;;;;;8.25;3.53;;;;;;;;;;5049695;28;20131;-78
2023/01/01 06:30:07;;;;;;;7.22;3.25;;;;;;;;;;5050040;28;20029;-78
2023/01/01 06:32:33;;;;;;;7.78;3.30;;;;;;;;;;5050027;28;20028;-80
2023/01/01 06:34:59;;;;;;;6.47;3.65;;;;;;;;;;5050118;28;20450;-79
2023/01/01 06:37:26;;;;;;;7.38;3.85;;;;;;;;;;5050528;28;20024;-79
2023/01/01 06:39:51;;;;;;;9.32;4.45;;;;;;;;;;5049782;28;20380;-79
2023/01/01 06:42:17;;;;;;;9.70;3.95;;;;;;;;;;5049673;28;20052;-80
2023/01/01 06:44:42;;;;;;;10.00;3.75;;;;;;;;;;5051641;28;20025;-80
2023/01/01 06:47:08;;;;;;;8.85;3.92;;;;;;;;;;5051477;28;20029;-79
2023/01/01 06:49:33;;;;;;;7.47;3.60;;;;;;;;;;5050274;28;20017;-80
2023/01/01 06:51:59;;;;;;;6.68;3.83;;;;;;;;;;5051150;28;20039;-79
2023/01/01 06:54:26;;;;;;;6.93;3.67;;;;;;;;;;5051077;28;20033;-80
2023/01/01 06:56:51;;;;;;;6.80;4.50;;;;;;;;;;5051584;28;20511;-80
2023/01/01 06:59:17;;;;;;;9.18;4.28;;;;;;;;;;5049828;28;20060;-79
2023/01/01 07:01:42;;;;;;;10.23;4.70;;;;;;;;;;5051134;28;20404;-79
2023/01/01 07:04:13;;;;;;;9.18;3.78;;;;;;;;;;5049347;28;20385;-78
2023/01/01 07:06:39;;;;;;;9.77;4.30;;;;;;;;;;5049494;28;20515;-78
2023/01/01 07:09:05;;;;;;;7.97;3.90;;;;;;;;;;5049133;28;20025;-79
2023/01/01 07:11:31;;;;;;;11.23;4.10;;;;;;;;;;5050791;28;20376;-79
2023/01/01 07:13:57;;;;;;;7.53;3.67;;;;;;;;;;5049204;28;20048;-79
2023/01/01 07:16:23;;;;;;;8.45;4.13;;;;;;;;;;5050678;28;20021;-78
2023/01/01 07:18:49;;;;;;;7.95;3.88;;;;;;;;;;5049547;28;20056;-79
2023/01/01 07:21:46;;;;;;;7.00;3.75;;;;;;;;;;5050551;28;20055;-79
2023/01/01 07:24:14;;;;;;;6.85;3.80;;;;;;;;;;5048271;28;20036;-79
2023/01/01 07:26:40;;;;;;;6.85;3.65;;;;;;;;;;5049566;28;20040;-79
2023/01/01 07:29:07;;;;;;;8.63;3.88;;;;;;;;;;5057141;28;20052;-79
2023/01/01 07:31:37;;;;;;;9.32;4.03;;;;;;;;;;5048894;28;20032;-80
2023/01/01 07:34:04;;;;;;;6.40;3.78;;;;;;;;;;5049089;28;20056;-79
2023/01/01 07:36:29;;;;;;;7.97;4.00;;;;;;;;;;5050951;28;20059;-80
2023/01/01 07:38:55;;;;;;;6.57;3.40;;;;;;;;;;5030850;28;20052;-80
2023/01/01 07:41:20;;;;;;;7.10;3.38;;;;;;;;;;5029285;28;20053;-79
2023/01/01 07:43:46;;;;;;;7.32;3.83;;;;;;;;;;5029336;28;20029;-80
2023/01/01 07:46:12;;;;;;;7.97;3.83;;;;;;;;;;5030066;28;20124;-80
2023/01/01 07:48:37;;;;;;;6.40;3.15;;;;;;;;;;5028658;28;20186;-79
2023/01/01 07:51:03;;;;;;;8.45;3.83;;;;;;;;;;5028944;28;20087;-79
2023/01/01 07:53:28;;;;;;;7.28;2.80;;;;;;;;;;5028728;28;20040;-80
2023/01/01 07:55:54;;;;;;;7.32;3.25;;;;;;;;;;5028897;28;20026;-79
2023/01/01 07:58:21;;;;;;;6.57;3.35;;;;;;;;;;5029947;28;20413;-79
2023/01/01 08:00:47;;;;;;;6.13;3.35;;;;;;;;;;5030733;28;20021;-79
2023/01/01 08:03:14;;;;;;;6.22;2.95;;;;;;;;;;5030232;28;20034;-80
2023/01/01 08:05:41;;;;;;;5.97;3.47;;;;;;;;;;5030853;28;20100;-80
2023/01/01 08:08:06;;;;;;;7.60;3.67;;;;;;;;;;5030642;28;20025;-78
2023/01/01 08:10:32;;;;;;;7.85;3.80;;;;;;;;;;5029840;28;20555;-80
2023/01/01 08:13:02;;;;;;;8.38;4.38;;;;;;;;;;5029941;28;20025;-80
2023/01/01 08:15:28;;;;;;;7.30;4.05;;;;;;;;;;5030223;28;20053;-79
2023/01/01 08:17:58;;;;;;;7.65;4.13;;;;;;;;;;5028954;28;20468;-80
2023/01/01 08:20:25;;;;;;;8.02;3.10;;;;;;;;;;5028457;28;20025;-79
2023/01/01 08:22:50;;;;;;;6.93;3.58;;;;;;;;;;5028929;28;20045;-80
2023/01/01 08:25:16;;;;;;;12.05;4.00;;;;;;;;;;5030200;28;20083;-80
2023/01/01 08:27:41;;;;;;;6.03;3.17;;;;;;;;;;5012010;28;20095;-79
2023/01/01 08:30:09;;;;;;;8.52;3.88;;;;;;;;;;5030474;28;20112;-80
2023/01/01 08:32:34;;;;;;;4.90;3.15;;;;;;;;;;5029890;28;20495;-81
2023/01/01 08:35:00;;;;;;;5.82;3.60;;;;;;;;;;5030070;28;20018;-80
2023/01/01 08:37:25;;;;;;;8.15;3.22;;;;;;;;;;5037654;28;20021;-80
2023/01/01 08:39:52;;;;;;;8.70;3.88;;;;;;;;;;5054742;28;20021;-80
2023/01/01 08:42:17;;;;;;;6.95;3.58;;;;;;;;;;5053557;28;20072;-79
2023/01/01 08:44:43;;;;;;;6.90;3.20;;;;;;;;;;5053816;28;20512;-80
2023/01/01 08:47:23;;;;;;;6.05;3.30;;;;;;;;;;5052438;28;20025;-79
2023/01/01 08:49:49;;;;;;;5.97;3.42;;;;;;;;;;5053803;28;20024;-80
2023/01/01 08:52:16;;;;;;;5.93;3.83;;;;;;;;;;5053924;28;20090;-80
2023/01/01 08:54:42;;;;;;;6.80;3.35;;;;;;;;;;5053819;28;20484;-80
2023/01/01 08:57:07;;;;;;;6.53;3.47;;;;;;;;;;5053987;28;20188;-80
2023/01/01 08:59:33;;;;;;;7.65;3.70;;;;;;;;;;5053393;28;20024;-78
2023/01/01 09:02:01;;;;;;;7.20;3.58;;;;;;;;;;5052327;28;20477;-79
2023/01/01 09:04:26;;;;;;;6.90;3.50;;;;;;;;;;5053566;28;20117;-80
2023/01/01 09:06:52;;;;;;;8.85;3.15;;;;;;;;;;5053794;28;20104;-79
2023/01/01 09:09:18;;;;;;;4.75;3.00;;;;;;;;;;5053655;28;20353;-80
2023/01/01 09:11:53;;;;;;;9.25;3.85;;;;;;;;;;5053380;28;20017;-79
2023/01/01 09:14:19;;;;;;;5.18;3.10;;;;;;;;;;5051982;28;20419;-80
2023/01/01 09:16:45;;;;;;;7.40;3.42;;;;;;;;;;5053357;28;20029;-80
2023/01/01 09:19:10;;;;;;;6.57;3.70;;;;;;;;;;5052921;28;20379;-79
2023/01/01 09:21:36;;;;;;;6.65;3.45;;;;;;;;;;5051648;28;20025;-80
2023/01/01 09:24:01;;;;;;;7.35;3.53;;;;;;;;;;5051686;28;20032;-81
2023/01/01 09:26:27;;;;;;;5.40;3.00;;;;;;;;;;5051854;28;20135;-81
2023/01/01 09:28:52;;;;;;;5.47;3.05;;;;;;;;;;5051994;28;20061;-80
2023/01/01 09:31:18;;;;;;;7.88;3.97;;;;;;;;;;5051203;28;20029;-80
2023/01/01 09:33:45;;;;;;;6.03;2.95;;;;;;;;;;5053955;28;20039;-79
2023/01/01 09:36:19;;;;;;;8.70;4.13;;;;;;;;;;5051762;28;20025;-80
2023/01/01 09:38:49;;;;;;;8.77;3.53;;;;;;;;;;5035484;28;20041;-81
2023/01/01 09:41:42;;;;;;;8.40;4.30;;;;;;;;;;5030832;28;20057;-80
2023/01/01 09:44:35;;;;;;;8.05;3.45;;;;;;;;;;5031639;28;20064;-79
2023/01/01 09:47:04;;;;;;;6.93;3.10;;;;;;;;;;5032499;28;20546;-80
2023/01/01 09:49:43;;;;;;;8.07;3.95;;;;;;;;;;5032545;28;20021;-80
2023/01/01 09:52:13;;;;;;;11.52;3.47;;;;;;;;;;5031807;28;20104;-80
2023/01/01 09:54:56;;;;;;;6.72;3.80;;;;;;;;;;5032146;28;20036;-80
2023/01/01 09:57:28;;;;;;;10.32;4.03;;;;;;;;;;5031596;28;20021;-80
2023/01/01 09:59:54;;;;;;;6.28;3.80;;;;;;;;;;5032194;28;20474;-82
2023/01/01 10:02:34;;;;;;;9.35;4.22;;;;;;;;;;5033194;28;20380;-81
2023/01/01 10:05:03;;;;;;;5.93;3.35;;;;;;;;;;5033830;28;20106;-80
2023/01/01 10:07:34;;;;;;;9.63;3.92;;;;;;;;;;5031172;28;20484;-80
2023/01/01 10:10:19;;;;;;;6.53;3.53;;;;;;;;;;5031070;28;20037;-80
2023/01/01 10:12:50;;;;;;;17.80;4.25;;;;;;;;;;5032870;28;20104;-81
2023/01/01 10:15:31;;;;;;;8.77;4.22;;;;;;;;;;5032380;28;20030;-81
2023/01/01 10:18:01;;;;;;;12.55;4.13;;;;;;;;;;5032284;28;20044;-79
2023/01/01 10:20:34;;;;;;;13.27;4.00;;;;;;;;;;5030838;28;20430;-80
2023/01/01 10:23:06;;;;;;;9.32;3.38;;;;;;;;;;5030919;28;20026;-79
2023/01/01 10:25:33;;;;;;;8.07;3.63;;;;;;;;;;5032008;28;20338;-79
2023/01/01 10:28:03;;;;;;;6.82;2.92;;;;;;;;;;5032187;28;20064;-80
2023/01/01 10:30:29;;;;;;;7.05;3.85;;;;;;;;;;5030850;28;20025;-81
2023/01/01 10:32:56;;;;;;;8.25;3.20;;;;;;;;;;5031330;28;20041;-80
2023/01/01 10:35:32;;;;;;;6.45;3.83;;;;;;;;;;5031883;28;20021;-80
2023/01/01 10:37:58;;;;;;;11.35;4.50;;;;;;;;;;5041831;28;20051;-80
2023/01/01 10:40:25;;;;;;;7.93;4.28;;;;;;;;;;5050779;28;20048;-80
2023/01/01 10:43:02;;;;;;;10.07;4.45;;;;;;;;;;5052041;28;20068;-81
2023/01/01 10:45:42;;;;;;;8.13;4.38;;;;;;;;;;5052197;28;20108;-80
2023/01/01 10:48:18;;;;;;;8.73;3.13;;;;;;;;;;5052494;28;20090;-78
2023/01/01 10:50:55;;;;;;;6.15;3.88;;;;;;;;;;5050689;28;20032;-80
2023/01/01 10:53:28;;;;;;;6.32;3.75;;;;;;;;;;5052634;28;20351;-80
2023/01/01 10:56:13;;;;;;;7.28;3.92;;;;;;;;;;5051907;28;20021;-81
2023/01/01 10:58:47;;;;;;;8.45;3.83;;;;;;;;;;5050110;28;20517;-80
2023/01/01 11:01:27;;;;;;;14.57;4.65;;;;;;;;;;5050509;28;20364;-80
2023/01/01 11:04:00;;;;;;;6.90;3.83;;;;;;;;;;5052442;28;20033;-80
2023/01/01 11:06:32;;;;;;;10.02;4.03;;;;;;;;;;5051367;28;20121;-81
2023/01/01 11:09:05;;;;;;;7.97;4.47;;;;;;;;;;5051230;28;20024;-81
2023/01/01 11:11:42;;;;;;;7.50;4.18;;;;;;;;;;5050303;28;20032;-79
2023/01/01 11:14:37;;;;;;;10.50;4.45;;;;;;;;;;5050393;28;20029;-79
2023/01/01 11:17:03;;;;;;;9.98;4.80;;;;;;;;;;5050324;28;20151;-80
2023/01/01 11:19:35;;;;;;;9.82;3.80;;;;;;;;;;5050333;28;20021;-81
2023/01/01 11:22:01;;;;;;;6.47;3.85;;;;;;;;;;5050165;28;20025;-81
2023/01/01 11:24:34;;;;;;;11.13;5.32;;;;;;;;;;5049929;28;20040;-81
2023/01/01 11:27:22;;;;;;;11.13;3.90;;;;;;;;;;5052163;28;20048;-81
2023/01/01 11:29:50;;;;;;;7.45;4.18;;;;;;;;;;5051402;28;20025;-80
2023/01/01 11:32:25;;;;;;;8.77;4.82;;;;;;;;;;5052316;28;20042;-80
2023/01/01 11:35:01;;;;;;;8.95;4.40;;;;;;;;;;5052342;28;20040;-79
2023/01/01 11:37:40;;;;;;;12.25;4.57;;;;;;;;;;5033970;28;20056;-80
2023/01/01 11:40:18;;;;;;;6.85;4.30;;;;;;;;;;5050269;28;20460;-79
2023/01/01 11:42:47;;;;;;;11.73;4.75;;;;;;;;;;5049659;28;20068;-80
2023/01/01 11:45:21;;;;;;;13.25;4.20;;;;;;;;;;5049629;28;20570;-79
2023/01/01 11:47:58;;;;;;;7.70;4.07;;;;;;;;;;5049880;28;20041;-80
2023/01/01 11:50:37;;;;;;;9.52;4.65;;;;;;;;;;5049673;28;20032;-81
2023/01/01 11:53:21;;;;;;;9.23;4.40;;;;;;;;;;5050802;28;20032;-81
2023/01/01 11:56:00;;;;;;;11.05;4.53;;;;;;;;;;5049348;28;20384;-80
2023/01/01 11:58:49;;;;;;;8.07;4.35;;;;;;;;;;5049826;28;20477;-80
2023/01/01 12:01:23;;;;;;;9.20;4.55;;;;;;;;;;5049565;28;20020;-80
2023/01/01 12:04:29;;;;;;;6.30;3.70;;;;;;;;;;5049408;28;20090;-81
2023/01/01 12:07:08;;;;;;;8.13;4.68;;;;;;;;;;5043765;28;20304;-80
2023/01/01 12:09:39;;;;;;;6.28;4.13;;;;;;;;;;5049474;28;20025;-80
2023/01/01 12:12:27;;;;;;;8.27;4.05;;;;;;;;;;5049053;28;20476;-79
2023/01/01 12:15:23;;;;;;;9.07;3.90;;;;;;;;;;5045945;28;20036;-80
2023/01/01 12:18:00;;;;;;;9.93;4.18;;;;;;;;;;5049379;28;20032;-80
2023/01/01 12:20:29;;;;;;;10.93;4.10;;;;;;;;;;5049029;28;20017;-79
2023/01/01 12:22:56;;;;;;;12.15;4.18;;;;;;;;;;5049092;28;20029;-80
2023/01/01 12:25:22;;;;;;;10.65;5.03;;;;;;;;;;5051009;28;20516;-80
2023/01/01 12:28:29;;;;;;;12.40;4.40;;;;;;;;;;5049772;28;20041;-79
2023/01/01 12:31:22;;;;;;;10.18;4.13;;;;;;;;;;5049284;28;20029;-81
2023/01/01 12:34:17;;;;;;;6.70;3.75;;;;;;;;;;5036570;28;20477;-81
2023/01/01 12:37:09;;;;;;;9.45;4.68;;;;;;;;;;5048724;28;20017;-81
2023/01/01 12:39:54;;;;;;;;;;;;;;;;;;5031092;28;20029;-80
2023/01/01 12:42:42;;;;;;;6.75;3.83;;;;;;;;;;5029205;28;20332;-79
2023/01/01 12:45:32;;;;;;;11.98;4.35;;;;;;;;;;5029510;28;20049;-80
2023/01/01 12:48:10;;;;;;;10.68;4.07;;;;;;;;;;5031351;28;20057;-79
2023/01/01 12:50:59;;;;;;;8.73;3.88;;;;;;;;;;5030656;28;20074;-81
2023/01/01 12:53:24;;;;;;;9.88;4.97;;;;;;;;;;5031452;28;20037;-81
2023/01/01 12:56:33;;;;;;;13.25;5.13;;;;;;;;;;5029441;28;20025;-80
2023/01/01 12:59:16;;;;;;;11.52;4.93;;;;;;;;;;5012186;28;20037;-81
2023/01/01 13:01:43;;;;;;;8.63;4.00;;;;;;;;;;5013159;28;20049;-81
2023/01/01 13:04:19;;;;;;;6.65;3.80;;;;;;;;;;5030617;28;20402;-81
2023/01/01 13:06:46;;;;;;;8.13;4.18;;;;;;;;;;5028812;28;20021;-81
2023/01/01 13:09:25;;;;;;;7.18;4.35;;;;;;;;;;5030784;28;20032;-81
2023/01/01 13:11:57;;;;;;;13.25;4.72;;;;;;;;;;5029996;28;20048;-81
2023/01/01 13:14:23;;;;;;;12.25;4.47;;;;;;;;;;5030348;28;20036;-81
2023/01/01 13:16:56;;;;;;;11.18;5.05;;;;;;;;;;5029615;28;20029;-80
2023/01/01 13:19:33;;;;;;;9.57;4.72;;;;;;;;;;5030668;28;20393;-82
2023/01/01 13:22:19;;;;;;;10.25;4.85;;;;;;;;;;5029353;28;20029;-81
2023/01/01 13:25:17;;;;;;;8.85;4.57;;;;;;;;;;5033204;28;20037;-81
2023/01/01 13:27:59;;;;;;;10.07;4.88;;;;;;;;;;5018377;28;20068;-81
2023/01/01 13:30:42;;;;;;;10.73;5.13;;;;;;;;;;5034037;28;20032;-80
2023/01/01 13:33:24;;;;;;;9.40;4.65;;;;;;;;;;5032347;28;20563;-81
2023/01/01 13:36:10;;;;;;;8.57;4.38;;;;;;;;;;5033457;28;20013;-81
2023/01/01 13:38:50;;;;;;;10.10;4.50;;;;;;;;;;5033868;28;20033;-81
2023/01/01 13:41:34;;;;;;;10.73;4.20;;;;;;;;;;5032085;28;20057;-82
2023/01/01 13:43:59;;;;;;;9.45;4.40;;;;;;;;;;5032410;28;20037;-81
2023/01/01 13:46:40;;;;;;;9.65;4.25;;;;;;;;;;5032403;28;20112;-80
2023/01/01 13:49:24;;;;;;;8.48;4.35;;;;;;;;;;5032368;28;20467;-81
2023/01/01 13:52:17;;;;;;;9.82;4.90;;;;;;;;;;5031619;28;20112;-80
2023/01/01 13:54:52;;;;;;;7.93;4.25;;;;;;;;;;5031709;28;20048;-80
2023/01/01 13:57:20;;;;;;;11.95;4.88;;;;;;;;;;5032798;28;20473;-81
2023/01/01 14:00:04;;;;;;;12.07;5.35;;;;;;;;;;5032781;28;20021;-81
2023/01/01 14:02:44;;;;;;;9.68;5.32;;;;;;;;;;5032927;28;20473;-81
2023/01/01 14:05:40;;;;;;;11.73;5.70;;;;;;;;;;5032957;28;20021;-81
2023/01/01 14:08:26;;;;;;;10.30;4.65;;;;;;;;;;5031700;28;20137;-81
2023/01/01 14:10:52;;;;;;;8.02;4.78;;;;;;;;;;5032127;28;20037;-80
2023/01/01 14:13:18;;;;;;;13.57;5.10;;;;;;;;;;5031980;28;20044;-81
2023/01/01 14:15:58;;;;;;;17.80;5.72;;;;;;;;;;5031766;28;20485;-80
2023/01/01 14:18:47;;;;;;;9.02;4.70;;;;;;;;;;5031682;28;20021;-80
2023/01/01 14:21:16;;;;;;;11.82;5.38;;;;;;;;;;5031466;28;20026;-80
2023/01/01 14:23:51;;;;;;;12.70;4.88;;;;;;;;;;5031826;28;20052;-81
2023/01/01 14:26:19;;;;;;;11.20;5.35;;;;;;;;;;5032698;28;20500;-81
2023/01/01 14:28:45;;;;;;;12.95;5.57;;;;;;;;;;5032835;28;20029;-81
2023/01/01 14:31:15;;;;;;;14.80;5.80;;;;;;;;;;5031393;28;20164;-80
2023/01/01 14:33:41;;;;;;;14.38;5.28;;;;;;;;;;5030165;28;20097;-80
2023/01/01 14:36:27;;;;;;;10.38;5.30;;;;;;;;;;5033092;28;20370;-79
2023/01/01 14:38:54;;;;;;;11.45;4.97;;;;;;;;;;5030804;28;20029;-81
2023/01/01 14:41:28;;;;;;;12.50;5.93;;;;;;;;;;5031108;28;20057;-80
2023/01/01 14:43:56;;;;;;;8.75;4.82;;;;;;;;;;5032168;28;20022;-80
2023/01/01 14:46:25;;;;;;;9.98;5.25;;;;;;;;;;5031417;28;20026;-81
2023/01/01 14:48:57;;;;;;;13.40;5.15;;;;;;;;;;5031262;28;20028;-80
2023/01/01 14:51:25;;;;;;;11.63;5.53;;;;;;;;;;5033028;28;20056;-79
2023/01/01 14:53:55;;;;;;;15.32;5.25;;;;;;;;;;5033436;28;20028;-81
2023/01/01 14:56:29;;;;;;;11.20;5.50;;;;;;;;;;5032134;28;20021;-80
2023/01/01 14:59:05;;;;;;;11.40;6.13;;;;;;;;;;5032306;28;20049;-80
2023/01/01 15:01:31;;;;;;;11.90;5.32;;;;;;;;;;5032552;28;20032;-80
2023/01/01 15:04:02;;;;;;;11.70;5.03;;;;;;;;;;5030754;28;20034;-81
2023/01/01 15:06:31;;;;;;;10.52;4.85;;;;;;;;;;5032135;28;20040;-80